createdAt,value
2019-05-30T00:02:09.715Z,1.20
2019-05-30T00:04:36.424Z,0.93
2019-05-30T00:07:02.566Z,0.23
2019-05-30T00:09:28.447Z,0.10
2019-05-30T00:11:54.730Z,0.47
2019-05-30T00:14:20.803Z,1.80
2019-05-30T00:16:46.694Z,0.20
2019-05-30T00:19:12.787Z,0.30
2019-05-30T00:21:38.719Z,2.00
2019-05-30T00:24:06.112Z,0.27
2019-05-30T00:26:32.366Z,0.43
2019-05-30T00:28:58.387Z,0.43
2019-05-30T00:31:24.328Z,0.13
2019-05-30T00:33:50.698Z,0.53
2019-05-30T00:36:16.697Z,0.20
2019-05-30T00:38:42.723Z,0.50
2019-05-30T00:41:08.804Z,0.10
2019-05-30T00:43:34.919Z,0.40
2019-05-30T00:46:02.087Z,1.07
2019-05-30T00:48:28.376Z,0.20
2019-05-30T00:50:54.288Z,1.07
2019-05-30T00:53:20.402Z,0.53
2019-05-30T00:55:46.528Z,0.50
2019-05-30T00:58:12.428Z,0.13
2019-05-30T01:00:43.665Z,0.47
2019-05-30T01:03:08.489Z,0.53
2019-05-30T01:05:34.267Z,0.33
2019-05-30T01:08:00.899Z,1.03
2019-05-30T01:10:27.118Z,0.90
2019-05-30T01:12:53.013Z,0.50
2019-05-30T01:15:19.144Z,1.40
2019-05-30T01:17:45.134Z,0.77
2019-05-30T01:20:11.453Z,1.23
2019-05-30T01:22:37.467Z,0.30
2019-05-30T01:25:07.888Z,0.30
2019-05-30T01:27:33.933Z,0.40
2019-05-30T01:29:59.891Z,0.20
2019-05-30T01:32:29.463Z,0.30
2019-05-30T01:34:57.609Z,0.43
2019-05-30T01:37:23.599Z,0.20
2019-05-30T01:39:49.796Z,1.10
2019-05-30T01:42:15.919Z,0.43
2019-05-30T01:44:41.840Z,2.17
2019-05-30T01:47:08.369Z,1.80
2019-05-30T01:49:34.512Z,0.30
2019-05-30T01:52:00.540Z,0.30
2019-05-30T01:54:26.732Z,0.90
2019-05-30T01:56:52.644Z,1.40
2019-05-30T01:59:18.691Z,0.67
2019-05-30T02:01:44.789Z,0.80
2019-05-30T02:04:10.737Z,1.00
2019-05-30T02:06:38.178Z,1.03
2019-05-30T02:09:05.930Z,1.17
2019-05-30T02:11:31.838Z,0.40
2019-05-30T02:13:57.751Z,1.03
2019-05-30T02:16:23.875Z,0.50
2019-05-30T02:18:49.788Z,0.43
2019-05-30T02:21:15.931Z,0.47
2019-05-30T02:23:42.492Z,0.47
2019-05-30T02:26:08.398Z,0.97
2019-05-30T02:28:34.352Z,0.93
2019-05-30T02:31:00.593Z,0.70
2019-05-30T02:33:26.578Z,0.20
2019-05-30T02:35:52.563Z,1.20
2019-05-30T02:38:18.720Z,0.20
2019-05-30T02:40:44.642Z,0.67
2019-05-30T02:43:12.043Z,0.37
2019-05-30T02:45:38.555Z,1.13
2019-05-30T02:48:05.455Z,0.40
2019-05-30T02:50:31.801Z,2.03
2019-05-30T02:52:57.882Z,1.97
2019-05-30T02:55:23.791Z,0.40
2019-05-30T02:57:49.738Z,1.30
2019-05-30T03:00:18.381Z,0.20
2019-05-30T03:02:44.410Z,0.77
2019-05-30T03:05:12.779Z,0.30
2019-05-30T03:07:38.718Z,1.47
2019-05-30T03:10:07.560Z,0.23
2019-05-30T03:12:33.870Z,0.43
2019-05-30T03:15:02.308Z,0.80
2019-05-30T03:17:28.090Z,0.50
2019-05-30T03:19:54.217Z,0.77
2019-05-30T03:22:20.334Z,0.57
2019-05-30T03:24:46.437Z,1.07
2019-05-30T03:27:14.216Z,0.40
2019-05-30T03:29:40.622Z,0.73
2019-05-30T03:32:44.987Z,0.30
2019-05-30T03:34:34.899Z,0.30
2019-05-30T03:37:00.986Z,0.43
2019-05-30T03:39:27.135Z,0.53
2019-05-30T03:41:53.056Z,0.27
2019-05-30T03:44:19.531Z,0.50
2019-05-30T03:46:49.273Z,1.13
2019-05-30T03:49:18.984Z,0.50
2019-05-30T03:51:46.932Z,0.70
2019-05-30T03:54:14.202Z,1.03
2019-05-30T03:56:45.102Z,0.90
2019-05-30T03:59:29.893Z,0.97
2019-05-30T04:02:06.460Z,0.20
2019-05-30T04:04:45.354Z,0.10
2019-05-30T04:07:19.416Z,0.20
2019-05-30T04:09:48.805Z,0.40
2019-05-30T04:12:24.583Z,0.43
2019-05-30T04:14:54.465Z,0.87
2019-05-30T04:17:20.363Z,0.13
2019-05-30T04:19:46.356Z,1.90
2019-05-30T04:22:13.452Z,0.37
2019-05-30T04:24:39.562Z,0.53
2019-05-30T04:27:07.767Z,0.80
2019-05-30T04:29:33.549Z,0.60
2019-05-30T04:31:59.604Z,0.70
2019-05-30T04:34:25.601Z,0.40
2019-05-30T04:36:53.360Z,0.63
2019-05-30T04:39:19.687Z,0.90
2019-05-30T04:41:47.599Z,1.43
2019-05-30T04:44:14.538Z,1.53
2019-05-30T04:46:41.605Z,0.87
2019-05-30T04:49:07.495Z,1.70
2019-05-30T04:51:33.690Z,1.77
2019-05-30T04:53:59.636Z,2.17
2019-05-30T04:56:25.634Z,0.93
2019-05-30T04:58:51.855Z,1.23
2019-05-30T05:01:19.898Z,1.77
2019-05-30T05:03:46.918Z,0.90
2019-05-30T05:06:13.826Z,0.40
2019-05-30T05:08:39.892Z,0.83
2019-05-30T05:11:05.786Z,0.87
2019-05-30T05:13:31.863Z,0.60
2019-05-30T05:15:57.809Z,0.53
2019-05-30T05:18:23.713Z,0.40
2019-05-30T05:20:49.860Z,0.87
2019-05-30T05:23:15.764Z,0.60
2019-05-30T05:25:42.675Z,0.40
2019-05-30T05:28:08.682Z,0.77
2019-05-30T05:30:34.727Z,0.93
2019-05-30T05:33:00.860Z,1.43
2019-05-30T05:35:27.134Z,0.60
2019-05-30T05:37:53.044Z,1.17
2019-05-30T05:40:20.166Z,0.70
2019-05-30T05:42:46.193Z,0.53
2019-05-30T05:45:12.709Z,0.63
2019-05-30T05:47:38.609Z,0.50
2019-05-30T05:50:05.421Z,1.07
2019-05-30T05:52:31.326Z,1.90
2019-05-30T05:54:57.220Z,0.37
2019-05-30T05:57:23.501Z,1.30
2019-05-30T05:59:49.540Z,0.57
2019-05-30T06:02:15.489Z,0.47
2019-05-30T06:04:41.748Z,1.50
2019-05-30T06:07:07.759Z,0.97
2019-05-30T06:09:33.792Z,0.80
2019-05-30T06:11:59.864Z,0.77
2019-05-30T06:14:26.208Z,3.30
2019-05-30T06:16:55.628Z,0.83
2019-05-30T06:19:21.242Z,0.50
2019-05-30T06:21:54.164Z,0.60
2019-05-30T06:24:15.530Z,0.57
2019-05-30T06:26:41.604Z,1.33
2019-05-30T06:29:07.515Z,1.00
2019-05-30T06:31:33.418Z,0.73
2019-05-30T06:33:59.527Z,0.70
2019-05-30T06:36:25.477Z,0.70
2019-05-30T06:38:51.506Z,0.40
2019-05-30T06:41:17.692Z,1.00
2019-05-30T06:43:43.616Z,1.00
2019-05-30T06:46:09.731Z,0.80
2019-05-30T06:48:35.830Z,0.87
2019-05-30T06:51:01.851Z,0.40
2019-05-30T06:53:27.849Z,0.30
2019-05-30T06:55:53.872Z,0.40
2019-05-30T06:58:38.279Z,0.60
2019-05-30T07:00:47.741Z,0.53
2019-05-30T07:03:14.008Z,1.17
2019-05-30T07:05:40.651Z,0.60
2019-05-30T07:08:06.854Z,1.33
2019-05-30T07:10:33.158Z,1.67
2019-05-30T07:12:59.210Z,1.20
2019-05-30T07:15:25.318Z,0.60
2019-05-30T07:17:51.598Z,0.40
2019-05-30T07:20:17.648Z,0.90
2019-05-30T07:22:43.556Z,0.30
2019-05-30T07:25:10.153Z,1.10
2019-05-30T07:27:36.075Z,0.40
2019-05-30T07:30:04.395Z,0.57
2019-05-30T07:32:30.501Z,2.23
2019-05-30T07:35:05.981Z,0.40
2019-05-30T07:37:24.556Z,0.50
2019-05-30T07:39:50.685Z,0.40
2019-05-30T07:42:16.705Z,0.77
2019-05-30T07:44:42.720Z,1.77
2019-05-30T07:47:08.956Z,1.80
2019-05-30T07:49:34.922Z,2.33
2019-05-30T07:52:00.965Z,0.80
2019-05-30T07:54:27.024Z,5.47
2019-05-30T07:56:52.942Z,1.40
2019-05-30T07:59:18.894Z,1.87
2019-05-30T08:01:44.982Z,1.00
2019-05-30T08:04:11.007Z,1.70
2019-05-30T08:06:37.903Z,2.43
2019-05-30T08:09:05.406Z,0.67
2019-05-30T08:11:31.382Z,0.40
2019-05-30T08:13:57.270Z,1.13
2019-05-30T08:16:23.364Z,1.03
2019-05-30T08:18:49.400Z,2.60
2019-05-30T08:21:15.402Z,1.20
2019-05-30T08:23:41.433Z,1.43
2019-05-30T08:26:07.483Z,0.53
2019-05-30T08:28:34.322Z,1.13
2019-05-30T08:31:00.475Z,1.70
2019-05-30T08:33:26.523Z,0.43
2019-05-30T08:35:52.512Z,3.60
2019-05-30T08:38:18.648Z,0.93
2019-05-30T08:40:44.807Z,1.67
2019-05-30T08:43:10.707Z,3.80
2019-05-30T08:45:37.829Z,0.90
2019-05-30T08:48:04.151Z,1.70
2019-05-30T08:50:30.297Z,0.53
2019-05-30T08:52:56.247Z,2.63
2019-05-30T08:55:22.449Z,1.07
2019-05-30T08:57:49.955Z,1.57
2019-05-30T09:00:16.852Z,2.30
2019-05-30T09:02:42.975Z,1.27
2019-05-30T09:05:09.398Z,1.13
2019-05-30T09:07:36.415Z,1.67
2019-05-30T09:10:04.873Z,1.00
2019-05-30T09:12:30.777Z,3.33
2019-05-30T09:14:56.827Z,2.83
2019-05-30T09:17:22.881Z,1.10
2019-05-30T09:19:48.788Z,3.47
2019-05-30T09:22:14.989Z,3.20
2019-05-30T09:24:42.038Z,1.40
2019-05-30T09:27:08.136Z,3.47
2019-05-30T09:29:35.408Z,1.47
2019-05-30T09:32:01.460Z,4.07
2019-05-30T09:34:27.359Z,0.87
2019-05-30T09:36:53.824Z,2.77
2019-05-30T09:39:19.750Z,3.03
2019-05-30T09:41:45.800Z,1.90
2019-05-30T09:44:11.918Z,3.57
2019-05-30T09:46:37.841Z,0.90
2019-05-30T09:49:03.854Z,3.13
2019-05-30T09:51:29.933Z,2.10
2019-05-30T09:53:55.891Z,1.70
2019-05-30T09:56:22.034Z,2.30
2019-05-30T09:58:48.154Z,2.37
2019-05-30T10:01:14.199Z,3.23
2019-05-30T10:03:40.098Z,2.23
2019-05-30T10:06:06.174Z,1.80
2019-05-30T10:08:32.123Z,1.40
2019-05-30T10:10:58.130Z,2.53
2019-05-30T10:13:24.223Z,1.53
2019-05-30T10:15:50.540Z,1.60
2019-05-30T10:18:16.444Z,1.50
2019-05-30T10:20:42.527Z,3.57
2019-05-30T10:23:08.462Z,1.70
2019-05-30T10:25:34.568Z,3.70
2019-05-30T10:28:00.759Z,2.57
2019-05-30T10:30:26.885Z,2.73
2019-05-30T10:32:53.810Z,1.90
2019-05-30T10:35:20.376Z,2.57
2019-05-30T10:37:47.117Z,4.43
2019-05-30T10:40:14.105Z,3.13
2019-05-30T10:42:40.317Z,2.40
2019-05-30T10:45:08.137Z,2.40
2019-05-30T10:47:34.048Z,3.47
2019-05-30T10:50:00.314Z,3.53
2019-05-30T10:52:26.487Z,4.00
2019-05-30T10:54:53.516Z,9.90
2019-05-30T10:57:19.660Z,4.17
2019-05-30T10:59:45.949Z,3.20
2019-05-30T11:02:13.348Z,2.57
2019-05-30T11:04:39.574Z,2.40
2019-05-30T11:07:12.326Z,6.77
2019-05-30T11:09:42.075Z,3.60
2019-05-30T11:12:07.984Z,5.80
2019-05-30T11:14:33.911Z,5.80
2019-05-30T11:17:00.154Z,5.60
2019-05-30T11:19:26.040Z,2.73
2019-05-30T11:21:52.868Z,3.73
2019-05-30T11:24:19.848Z,4.10
2019-05-30T11:26:45.742Z,2.20
2019-05-30T11:29:11.880Z,3.57
2019-05-30T11:31:38.092Z,5.00
2019-05-30T11:34:04.081Z,4.73
2019-05-30T11:36:30.113Z,3.67
2019-05-30T11:38:57.449Z,2.97
2019-05-30T11:41:23.407Z,2.63
2019-05-30T11:43:51.442Z,4.90
2019-05-30T11:46:17.754Z,3.10
2019-05-30T11:48:43.638Z,3.83
2019-05-30T11:51:09.558Z,2.87
2019-05-30T11:53:35.681Z,3.57
2019-05-30T11:56:01.590Z,3.47
2019-05-30T11:58:27.523Z,4.13
2019-05-30T12:00:54.711Z,5.20
2019-05-30T12:03:20.996Z,3.33
2019-05-30T12:05:46.910Z,2.97
2019-05-30T12:08:13.073Z,7.40
2019-05-30T12:10:38.989Z,2.83
2019-05-30T12:13:05.323Z,4.70
2019-05-30T12:15:31.574Z,5.10
2019-05-30T12:17:57.558Z,3.23
2019-05-30T12:20:23.706Z,5.43
2019-05-30T12:22:49.919Z,1.20
2019-05-30T12:25:16.818Z,3.83
2019-05-30T12:27:43.853Z,3.37
2019-05-30T12:30:10.640Z,4.47
2019-05-30T12:32:36.529Z,3.83
2019-05-30T12:35:05.659Z,2.33
2019-05-30T12:37:31.862Z,2.87
2019-05-30T12:39:58.671Z,1.70
2019-05-30T12:42:24.827Z,4.33
2019-05-30T12:44:50.823Z,2.03
2019-05-30T12:47:16.730Z,7.00
2019-05-30T12:49:42.694Z,4.07
2019-05-30T12:52:08.986Z,3.77
2019-05-30T12:54:34.892Z,5.83
2019-05-30T12:57:00.852Z,1.37
2019-05-30T12:59:26.917Z,5.50
2019-05-30T13:01:52.800Z,4.77
2019-05-30T13:04:18.775Z,3.60
2019-05-30T13:06:44.787Z,5.77
2019-05-30T13:09:10.801Z,4.07
2019-05-30T13:11:36.798Z,4.97
2019-05-30T13:14:03.542Z,2.33
2019-05-30T13:16:29.574Z,4.10
2019-05-30T13:18:55.945Z,3.30
2019-05-30T13:21:22.295Z,2.40
2019-05-30T13:23:48.195Z,3.83
2019-05-30T13:26:14.207Z,4.23
2019-05-30T13:28:40.434Z,7.97
2019-05-30T13:31:07.082Z,7.00
2019-05-30T13:33:33.299Z,3.67
2019-05-30T13:35:59.397Z,4.37
2019-05-30T13:38:26.856Z,3.40
2019-05-30T13:40:53.001Z,2.77
2019-05-30T13:43:19.145Z,3.27
2019-05-30T13:45:45.290Z,3.93
2019-05-30T13:48:11.226Z,4.57
2019-05-30T13:50:37.314Z,6.80
2019-05-30T13:53:03.461Z,3.63
2019-05-30T13:55:29.480Z,3.93
2019-05-30T13:57:55.466Z,4.10
2019-05-30T14:00:21.783Z,2.13
2019-05-30T14:02:47.690Z,4.77
2019-05-30T14:05:16.021Z,2.63
2019-05-30T14:07:42.038Z,2.60
2019-05-30T14:10:09.162Z,2.77
2019-05-30T14:12:35.458Z,5.63
2019-05-30T14:15:06.494Z,2.20
2019-05-30T14:17:29.494Z,6.60
2019-05-30T14:19:55.606Z,3.07
2019-05-30T14:22:21.520Z,1.80
2019-05-30T14:24:47.527Z,4.00
2019-05-30T14:27:13.617Z,2.83
2019-05-30T14:29:39.502Z,2.67
2019-05-30T14:32:05.794Z,3.03
2019-05-30T14:34:32.181Z,4.70
2019-05-30T14:36:58.166Z,2.87
2019-05-30T14:39:24.172Z,2.57
2019-05-30T14:41:50.192Z,6.70
2019-05-30T14:44:16.116Z,0.90
2019-05-30T14:46:42.003Z,2.10
2019-05-30T14:49:08.621Z,3.13
2019-05-30T14:51:35.451Z,5.27
2019-05-30T14:54:01.490Z,2.57
2019-05-30T14:56:27.605Z,4.60
2019-05-30T14:58:53.532Z,3.63
2019-05-30T15:01:19.423Z,2.93
2019-05-30T15:03:45.565Z,3.90
2019-05-30T15:06:15.389Z,7.83
2019-05-30T15:08:39.573Z,3.10
2019-05-30T15:11:05.745Z,2.63
2019-05-30T15:13:31.753Z,2.97
2019-05-30T15:15:57.648Z,3.00
2019-05-30T15:18:23.782Z,1.73
2019-05-30T15:20:49.699Z,5.23
2019-05-30T15:23:15.841Z,2.53
2019-05-30T15:25:42.026Z,3.57
2019-05-30T15:28:07.986Z,3.80
2019-05-30T15:30:34.033Z,4.37
2019-05-30T15:33:00.198Z,3.83
2019-05-30T15:35:26.191Z,3.37
2019-05-30T15:37:52.242Z,3.03
2019-05-30T15:40:18.930Z,3.77
2019-05-30T15:42:45.030Z,2.50
2019-05-30T15:45:13.913Z,3.07
2019-05-30T15:47:40.235Z,4.10
2019-05-30T15:50:08.197Z,3.03
2019-05-30T15:52:34.684Z,4.07
2019-05-30T15:55:00.834Z,3.50
2019-05-30T15:57:26.834Z,2.20
2019-05-30T15:59:52.765Z,4.13
2019-05-30T16:02:20.403Z,1.93
2019-05-30T16:04:46.330Z,3.70
2019-05-30T16:07:12.576Z,5.97
2019-05-30T16:09:46.675Z,1.63
2019-05-30T16:12:06.598Z,2.40
2019-05-30T16:14:32.487Z,3.93
2019-05-30T16:16:58.553Z,5.07
2019-05-30T16:19:26.448Z,4.53
2019-05-30T16:21:52.455Z,3.27
2019-05-30T16:24:18.620Z,2.93
2019-05-30T16:26:44.629Z,2.80
2019-05-30T16:29:10.550Z,2.50
2019-05-30T16:31:36.622Z,1.67
2019-05-30T16:34:02.762Z,4.43
2019-05-30T16:36:28.686Z,4.33
2019-05-30T16:38:54.792Z,3.73
2019-05-30T16:41:20.825Z,2.93
2019-05-30T16:43:46.761Z,4.70
2019-05-30T16:46:12.745Z,2.47
2019-05-30T16:48:38.746Z,1.53
2019-05-30T16:51:04.912Z,3.27
2019-05-30T16:53:31.165Z,2.60
2019-05-30T16:55:57.171Z,3.83
2019-05-30T16:58:23.776Z,3.50
2019-05-30T17:00:51.986Z,4.03
2019-05-30T17:03:17.888Z,3.53
2019-05-30T17:05:43.813Z,6.47
2019-05-30T17:08:10.045Z,5.77
2019-05-30T17:10:35.955Z,6.27
2019-05-30T17:13:02.082Z,2.90
2019-05-30T17:15:28.145Z,2.37
2019-05-30T17:17:54.047Z,4.07
2019-05-30T17:20:20.577Z,2.17
2019-05-30T17:22:46.666Z,6.07
2019-05-30T17:25:12.866Z,3.77
2019-05-30T17:27:38.927Z,3.13
2019-05-30T17:30:06.417Z,4.70
2019-05-30T17:32:32.329Z,2.10
2019-05-30T17:34:58.256Z,2.47
2019-05-30T17:37:24.577Z,4.77
2019-05-30T17:39:50.521Z,3.10
2019-05-30T17:42:16.569Z,2.33
2019-05-30T17:44:42.563Z,4.07
2019-05-30T17:47:08.553Z,4.03
2019-05-30T17:49:34.577Z,3.57
2019-05-30T17:52:00.751Z,5.60
2019-05-30T17:54:27.948Z,5.80
2019-05-30T17:56:53.986Z,2.50
2019-05-30T17:59:20.263Z,4.27
2019-05-30T18:01:46.245Z,3.60
2019-05-30T18:04:12.166Z,7.23
2019-05-30T18:06:38.238Z,2.67
2019-05-30T18:09:05.711Z,4.07
2019-05-30T18:11:31.660Z,3.90
2019-05-30T18:13:57.717Z,2.13
2019-05-30T18:16:23.719Z,4.07
2019-05-30T18:18:49.617Z,6.20
2019-05-30T18:21:15.887Z,5.40
2019-05-30T18:23:44.724Z,3.03
2019-05-30T18:26:09.610Z,4.13
2019-05-30T18:28:35.869Z,4.47
2019-05-30T18:31:01.761Z,1.70
2019-05-30T18:33:28.365Z,6.70
2019-05-30T18:35:54.741Z,3.87
2019-05-30T18:38:20.743Z,3.40
2019-05-30T18:40:46.917Z,4.70
2019-05-30T18:43:12.973Z,3.07
2019-05-30T18:45:40.676Z,4.20
2019-05-30T18:48:08.200Z,5.63
2019-05-30T18:50:35.593Z,4.77
2019-05-30T18:53:01.719Z,3.93
2019-05-30T18:55:28.552Z,4.70
2019-05-30T18:57:54.707Z,5.77
2019-05-30T19:00:20.729Z,6.30
2019-05-30T19:02:46.758Z,9.10
2019-05-30T19:05:12.913Z,10.03
2019-05-30T19:07:38.914Z,3.17
2019-05-30T19:10:05.550Z,8.20
2019-05-30T19:12:32.206Z,5.93
2019-05-30T19:14:58.221Z,1.77
2019-05-30T19:17:25.342Z,4.73
2019-05-30T19:19:51.480Z,5.77
2019-05-30T19:22:17.558Z,5.63
2019-05-30T19:24:43.472Z,4.50
2019-05-30T19:27:09.637Z,5.20
2019-05-30T19:29:35.574Z,5.43
2019-05-30T19:32:01.475Z,4.53
2019-05-30T19:34:28.498Z,4.33
2019-05-30T19:36:54.477Z,6.83
2019-05-30T19:39:20.505Z,4.00
2019-05-30T19:41:56.856Z,5.50
2019-05-30T19:44:14.509Z,7.40
2019-05-30T19:46:40.430Z,6.60
2019-05-30T19:49:06.434Z,7.03
2019-05-30T19:51:33.011Z,4.07
2019-05-30T19:53:58.976Z,5.67
2019-05-30T19:56:25.035Z,7.53
2019-05-30T19:58:51.052Z,4.87
2019-05-30T20:01:16.975Z,5.13
2019-05-30T20:03:46.907Z,5.90
2019-05-30T20:06:10.915Z,5.93
2019-05-30T20:08:51.350Z,5.63
2019-05-30T20:11:04.832Z,8.50
2019-05-30T20:13:31.109Z,7.77
2019-05-30T20:15:57.045Z,6.80
2019-05-30T20:18:23.111Z,6.47
2019-05-30T20:20:57.259Z,8.33
2019-05-30T20:23:17.317Z,4.43
2019-05-30T20:25:45.868Z,4.37
2019-05-30T20:28:11.132Z,8.40
2019-05-30T20:30:37.192Z,8.73
2019-05-30T20:33:03.548Z,6.93
2019-05-30T20:35:29.584Z,7.10
2019-05-30T20:37:55.501Z,3.60
2019-05-30T20:40:21.721Z,6.43
2019-05-30T20:42:47.630Z,7.57
2019-05-30T20:45:14.343Z,4.13
2019-05-30T20:47:42.448Z,9.87
2019-05-30T20:50:09.122Z,4.70
2019-05-30T20:52:38.690Z,4.70
2019-05-30T20:55:07.422Z,5.13
2019-05-30T20:57:34.274Z,7.17
2019-05-30T21:00:00.322Z,6.60
2019-05-30T21:02:29.312Z,5.50
2019-05-30T21:04:54.505Z,6.60
2019-05-30T21:07:20.629Z,6.90
2019-05-30T21:09:48.462Z,4.70
2019-05-30T21:12:14.588Z,7.13
2019-05-30T21:14:44.095Z,8.63
2019-05-30T21:17:10.968Z,8.73
2019-05-30T21:19:37.780Z,6.00
2019-05-30T21:22:03.708Z,7.00
2019-05-30T21:24:29.888Z,6.60
2019-05-30T21:26:56.003Z,7.20
2019-05-30T21:29:21.893Z,6.77
2019-05-30T21:31:47.943Z,4.53
2019-05-30T21:34:16.235Z,7.97
2019-05-30T21:36:42.173Z,5.30
2019-05-30T21:39:08.279Z,6.10
2019-05-30T21:41:34.300Z,7.47
2019-05-30T21:44:00.213Z,2.07
2019-05-30T21:46:26.340Z,6.27
2019-05-30T21:48:52.260Z,4.30
2019-05-30T21:51:18.144Z,4.37
2019-05-30T21:53:45.565Z,7.27
2019-05-30T21:56:13.003Z,3.97
2019-05-30T21:58:40.016Z,5.70
2019-05-30T22:01:21.954Z,6.77
2019-05-30T22:03:48.753Z,7.13
2019-05-30T22:06:14.756Z,4.57
2019-05-30T22:08:41.054Z,7.40
2019-05-30T22:11:07.257Z,9.30
2019-05-30T22:13:33.269Z,8.40
2019-05-30T22:15:59.432Z,9.60
2019-05-30T22:18:25.419Z,5.63
2019-05-30T22:20:52.115Z,4.37
2019-05-30T22:23:18.146Z,3.90
2019-05-30T22:25:44.262Z,8.43
2019-05-30T22:28:10.238Z,10.27
2019-05-30T22:30:36.407Z,5.60
2019-05-30T22:33:02.569Z,9.07
2019-05-30T22:35:28.666Z,5.50
2019-05-30T22:37:54.719Z,4.10
2019-05-30T22:40:20.775Z,4.37
2019-05-30T22:42:46.654Z,4.67
2019-05-30T22:45:12.874Z,4.33
2019-05-30T22:47:39.017Z,2.50
2019-05-30T22:50:06.520Z,2.30
2019-05-30T22:52:32.492Z,4.83
2019-05-30T22:54:58.440Z,6.60
2019-05-30T22:57:24.445Z,4.30
2019-05-30T22:59:50.932Z,4.13
2019-05-30T23:02:16.940Z,3.20
2019-05-30T23:04:42.954Z,4.13
2019-05-30T23:07:08.993Z,3.27
2019-05-30T23:09:35.028Z,3.53
2019-05-30T23:12:01.054Z,4.70
2019-05-30T23:14:27.040Z,3.40
2019-05-30T23:16:52.937Z,5.17
2019-05-30T23:19:18.950Z,6.77
2019-05-30T23:21:45.020Z,7.07
2019-05-30T23:24:11.059Z,4.40
2019-05-30T23:26:37.064Z,5.93
2019-05-30T23:29:03.305Z,8.20
2019-05-30T23:31:29.250Z,6.47
2019-05-30T23:33:56.385Z,6.20
2019-05-30T23:36:22.650Z,6.80
2019-05-30T23:38:48.793Z,5.33
2019-05-30T23:41:14.710Z,4.70
2019-05-30T23:43:55.423Z,6.60
2019-05-30T23:46:08.516Z,3.80
2019-05-30T23:48:34.501Z,5.00
2019-05-30T23:51:00.619Z,8.30
2019-05-30T23:53:26.722Z,4.13
2019-05-30T23:55:52.613Z,7.57
2019-05-30T23:58:18.709Z,7.60
